Estación municipal de Queralbs (Ripollès, P.N.de les capçaleres del Ter i el Freser)

Consulta los datos en tiempo real de la estación municipal de Queralbs





Hora UTC 07:20
Temperatura 10.3 ºC
Humedad 83.2 %
Pluja 0.1 mm
Velocidad viento 3.2 km/h
Dirección viento ENE

Datos diarios 2026-05-10



Hora UTC (invierno +1h; verano +2h)
Temperatura (ºC) Humedad (%) Velocidad viento (km/h) Precipitación (mm)
Hora UTC Aire Humedad Vel. Dir. Vel. Max Dir. Intent. máx 5 min.
00:05 7.0 96.5 0.0 NNE 0.0 W 0.0
00:10 7.0 96.6 1.0 NNE 4.2 NNE 0.0
00:15 7.0 96.6 0.3 NNE 2.8 NE 0.0
00:20 7.0 96.7 0.0 NNE 0.0 NNE 0.0
00:25 7.0 96.8 0.0 ENE 1.1 ENE 0.0
00:30 7.0 96.7 2.3 SSE 4.2 SSE 0.0
00:35 7.0 96.6 0.3 SSE 1.8 SSE 0.0
00:40 7.0 96.6 0.0 NNE 0.0 ESE 0.0
00:45 6.9 96.7 0.1 NE 1.4 NE 0.0
00:50 6.9 96.7 0.7 S 3.2 S 0.0
00:55 6.9 96.7 0.0 S 1.4 SSW 0.0
01:00 6.8 96.6 0.0 NNE 0.0 NNW 0.0
01:05 6.7 96.4 0.0 NNE 0.0 0.0
01:10 6.5 96.3 0.2 WSW 1.8 WSW 0.0
01:15 6.4 96.5 0.2 W 1.8 W 0.0
01:20 6.4 96.6 0.0 ENE 1.1 ENE 0.0
01:25 6.3 96.5 1.1 N 3.2 NNE 0.0
01:30 6.3 96.8 0.7 NW 3.2 NNW 0.0
01:35 6.4 96.9 2.2 NNW 4.9 N 0.0
01:40 6.3 96.5 2.9 SW 6.4 SSW 0.0
01:45 6.1 96.4 3.4 W 6.7 W 0.0
01:50 6.1 96.2 1.0 ENE 4.6 N 0.0
01:55 5.9 96.5 1.6 N 4.9 N 0.0
02:00 5.8 96.4 2.7 NNW 5.6 N 0.0
02:05 5.8 96.8 3.0 NNW 6.4 NNW 0.0
02:10 5.9 96.8 1.2 NNW 2.8 N 0.0
02:15 5.8 96.4 1.2 WSW 3.2 WSW 0.0
02:20 5.7 96.5 2.4 W 6.4 W 0.0
02:25 5.8 97.0 4.3 WSW 7.1 W 0.0
02:30 5.9 96.8 2.6 W 4.9 SW 0.0
02:35 5.8 96.3 1.2 NW 4.2 WNW 0.0
02:40 5.6 96.0 2.1 N 4.9 0.0
02:45 5.4 96.2 2.3 N 3.9 NNW 0.0
02:50 5.4 96.7 2.2 NNW 4.2 NNE 0.0
02:55 5.4 96.6 3.1 W 6.4 WSW 0.0
03:00 5.5 97.0 5.2 W 10.2 WSW 0.0
03:05 5.7 96.6 3.3 W 6.4 WSW 0.0
03:10 5.8 96.4 1.8 SW 4.6 SSW 0.0
03:15 5.5 95.8 5.1 NNE 7.8 NE 0.0
03:20 5.4 96.1 2.6 NNW 4.6 N 0.0
03:25 5.2 96.0 2.1 WNW 3.9 WNW 0.0
03:30 5.0 96.4 0.9 NNW 3.2 WNW 0.0
03:35 5.0 96.6 0.8 NNW 2.8 SSW 0.0
03:40 5.1 96.9 1.7 NW 4.2 N 0.0
03:45 5.1 96.7 1.3 N 3.9 NNE 0.0
03:50 5.0 96.6 0.9 N 3.2 N 0.0
03:55 4.9 96.6 0.0 NNE 0.0 ENE 0.0
04:00 4.9 96.6 1.5 NNW 4.9 NNW 0.0
04:05 4.9 96.6 0.9 SW 3.5 W 0.0
04:10 4.9 96.7 1.1 WNW 2.8 WNW 0.0
04:15 4.9 96.8 3.4 SW 7.1 SW 0.0
04:20 5.0 97.0 2.0 WSW 5.3 SW 0.0
04:25 5.2 96.9 2.5 NNW 6.0 NW 0.0
04:30 5.0 96.3 3.2 WSW 5.6 W 0.0
04:35 4.9 96.5 3.6 NW 5.3 NNW 0.0
04:40 4.8 96.7 2.5 W 5.3 S 0.0
04:45 4.9 96.8 2.6 SW 5.6 SW 0.0
04:50 4.8 96.8 1.6 WSW 3.2 W 0.0
04:55 4.8 96.8 1.4 SW 3.2 SSW 0.0
05:00 4.9 97.0 1.4 NW 2.8 S 0.0
05:05 5.0 96.9 1.6 NNW 3.2 N 0.0
05:10 5.0 96.8 1.6 NNW 4.2 N 0.0
05:15 5.0 96.8 0.3 NNE 2.5 ENE 0.0
05:20 4.9 96.8 2.1 WSW 3.5 W 0.0
05:25 4.9 97.0 2.1 WSW 4.2 WSW 0.0
05:30 5.1 97.3 0.3 WSW 2.1 WSW 0.0
05:35 5.2 97.1 0.2 WSW 2.1 WSW 0.0
05:40 5.2 97.1 0.2 W 1.8 SW 0.0
05:45 5.2 97.0 1.7 N 3.9 N 0.0
05:50 5.1 96.8 2.0 NW 3.9 N 0.0
05:55 5.2 97.2 1.8 WSW 4.2 WSW 0.1
06:00 5.5 97.4 0.4 SSW 2.8 SSW 0.0
06:05 6.3 97.9 1.9 SSE 4.2 NE 0.0
06:10 6.9 97.6 0.9 NNE 3.5 NE 0.0
06:15 7.5 96.8 1.5 E 4.2 E 0.0
06:20 7.7 95.2 1.6 E 4.9 ENE 0.0
06:25 7.8 93.2 3.0 ENE 6.0 ENE 0.0
06:30 7.9 93.7 1.7 E 3.9 ESE 0.0
06:35 8.3 94.1 1.4 ESE 3.5 E 0.0
06:40 8.5 94.0 2.1 SE 4.2 E 0.0
06:45 8.8 93.8 2.2 E 4.2 E 0.0
06:50 8.7 91.1 2.8 ENE 4.6 ENE 0.0
06:55 8.7 90.3 3.4 ENE 6.4 NE 0.0
07:00 8.9 87.4 3.3 ENE 6.0 ENE 0.0
07:05 9.6 87.2 2.0 E 3.9 E 0.0
07:10 9.9 83.2 2.7 E 4.6 E 0.0
07:15 10.2 83.2 2.6 SSE 4.9 E 0.0
07:20 10.3 83.2 3.2 ENE 5.6 ESE 0.0
Máxima 10.3 97.9 5.2 W 10.2 WSW 0.1
Mínima 4.8 83.2
Total 0.1